createdAt,value
2017-08-24T00:00:32.054Z,1000.27
2017-08-24T00:01:32.069Z,1000.25
2017-08-24T00:02:32.092Z,1000.17
2017-08-24T00:03:32.116Z,1000.14
2017-08-24T00:04:32.140Z,1000.14
2017-08-24T00:05:32.161Z,1000.14
2017-08-24T00:06:32.198Z,1000.11
2017-08-24T00:07:32.207Z,1000.09
2017-08-24T00:08:32.227Z,1000.11
2017-08-24T00:09:32.251Z,1000.14
2017-08-24T00:10:32.299Z,1000.13
2017-08-24T00:11:32.303Z,1000.12
2017-08-24T00:12:32.327Z,1000.10
2017-08-24T00:13:32.364Z,1000.06
2017-08-24T00:14:32.369Z,1000.08
2017-08-24T00:15:32.401Z,1000.05
2017-08-24T00:16:32.438Z,1000.02
2017-08-24T00:17:32.436Z,1000.04
2017-08-24T00:18:32.455Z,1000.03
2017-08-24T00:19:32.480Z,999.99
2017-08-24T00:20:32.519Z,1000.04
2017-08-24T00:21:32.526Z,1000.08
2017-08-24T00:22:32.548Z,1000.04
2017-08-24T00:23:32.584Z,1000.02
2017-08-24T00:24:32.606Z,1000.00
2017-08-24T00:25:32.618Z,1000.01
2017-08-24T00:26:32.638Z,999.99
2017-08-24T00:27:32.661Z,1000.02
2017-08-24T00:28:32.681Z,1000.02
2017-08-24T00:29:32.716Z,1000.05
2017-08-24T00:30:32.726Z,1000.04
2017-08-24T00:31:32.753Z,1000.04
2017-08-24T00:32:32.770Z,1000.04
2017-08-24T00:33:32.798Z,1000.06
2017-08-24T00:34:32.813Z,1000.03
2017-08-24T00:35:32.842Z,1000.03
2017-08-24T00:36:32.856Z,1000.01
2017-08-24T00:37:32.883Z,999.99
2017-08-24T00:38:32.901Z,999.95
2017-08-24T00:39:32.926Z,1000.00
2017-08-24T00:40:32.952Z,999.94
2017-08-24T00:41:32.983Z,999.96
2017-08-24T00:42:32.994Z,999.97
2017-08-24T00:43:33.019Z,999.97
2017-08-24T00:44:33.040Z,999.91
2017-08-24T00:45:33.059Z,999.91
2017-08-24T00:46:33.093Z,999.96
2017-08-24T00:47:33.111Z,999.95
2017-08-24T00:48:33.129Z,999.95
2017-08-24T00:49:33.161Z,1000.00
2017-08-24T00:50:33.176Z,999.99
2017-08-24T00:51:33.199Z,1000.00
2017-08-24T00:52:33.222Z,999.97
2017-08-24T00:53:33.239Z,999.93
2017-08-24T00:54:33.278Z,999.90
2017-08-24T00:55:33.294Z,999.94
2017-08-24T00:56:33.310Z,999.94
2017-08-24T00:57:33.333Z,999.91
2017-08-24T00:58:33.351Z,999.85
2017-08-24T00:59:33.379Z,999.87
2017-08-24T01:00:33.402Z,999.86
2017-08-24T01:01:33.423Z,999.86
2017-08-24T01:02:33.444Z,999.89
2017-08-24T01:03:33.470Z,999.90
2017-08-24T01:04:33.489Z,999.82
2017-08-24T01:05:33.512Z,999.86
2017-08-24T01:06:33.531Z,999.86
2017-08-24T01:07:33.548Z,999.84
2017-08-24T01:08:33.573Z,999.83
2017-08-24T01:09:33.597Z,999.83
2017-08-24T01:10:33.617Z,999.81
2017-08-24T01:11:33.655Z,999.81
2017-08-24T01:12:33.665Z,999.81
2017-08-24T01:13:33.700Z,999.82
2017-08-24T01:14:33.706Z,999.79
2017-08-24T01:15:33.752Z,999.81
2017-08-24T01:16:33.759Z,999.78
2017-08-24T01:17:33.776Z,999.72
2017-08-24T01:18:33.798Z,999.75
2017-08-24T01:19:33.818Z,999.73
2017-08-24T01:20:33.854Z,999.71
2017-08-24T01:21:33.871Z,999.70
2017-08-24T01:22:33.889Z,999.69
2017-08-24T01:23:33.911Z,999.63
2017-08-24T01:24:33.927Z,999.62
2017-08-24T01:25:33.964Z,999.70
2017-08-24T01:26:33.982Z,999.70
2017-08-24T01:27:34.017Z,999.70
2017-08-24T01:28:34.034Z,999.70
2017-08-24T01:29:34.045Z,999.69
2017-08-24T01:30:34.066Z,999.65
2017-08-24T01:31:34.087Z,999.64
2017-08-24T01:32:34.107Z,999.69
2017-08-24T01:33:34.134Z,999.62
2017-08-24T01:34:34.157Z,999.61
2017-08-24T01:35:34.186Z,999.66
2017-08-24T01:36:34.193Z,999.62
2017-08-24T01:37:34.236Z,999.64
2017-08-24T01:38:34.250Z,999.62
2017-08-24T01:39:34.266Z,999.64
2017-08-24T01:40:34.301Z,999.63
2017-08-24T01:41:34.312Z,999.64
2017-08-24T01:42:34.341Z,999.70
2017-08-24T01:43:34.351Z,999.67
2017-08-24T01:44:34.380Z,999.67
2017-08-24T01:45:34.397Z,999.70
2017-08-24T01:46:34.425Z,999.68
2017-08-24T01:47:34.451Z,999.67
2017-08-24T01:48:34.465Z,999.66
2017-08-24T01:49:34.489Z,999.67
2017-08-24T01:50:34.513Z,999.65
2017-08-24T01:51:34.547Z,999.65
2017-08-24T01:52:34.563Z,999.68
2017-08-24T01:53:34.592Z,999.68
2017-08-24T01:54:34.605Z,999.64
2017-08-24T01:55:34.632Z,999.62
2017-08-24T01:56:34.643Z,999.59
2017-08-24T01:57:34.669Z,999.58
2017-08-24T01:58:34.725Z,999.59
2017-08-24T01:59:34.712Z,999.60
2017-08-24T02:00:34.746Z,999.54
2017-08-24T02:01:34.752Z,999.56
2017-08-24T02:02:34.792Z,999.52
2017-08-24T02:03:34.800Z,999.53
2017-08-24T02:04:34.820Z,999.55
2017-08-24T02:05:34.845Z,999.55
2017-08-24T02:06:34.878Z,999.59
2017-08-24T02:07:34.906Z,999.55
2017-08-24T02:08:34.916Z,999.56
2017-08-24T02:09:34.942Z,999.49
2017-08-24T02:10:34.969Z,999.52
2017-08-24T02:11:35.007Z,999.57
2017-08-24T02:12:35.002Z,999.57
2017-08-24T02:13:35.032Z,999.58
2017-08-24T02:14:35.056Z,999.56
2017-08-24T02:15:35.069Z,999.50
2017-08-24T02:16:35.085Z,999.56
2017-08-24T02:17:35.109Z,999.52
2017-08-24T02:18:35.146Z,999.48
2017-08-24T02:19:35.159Z,999.44
2017-08-24T02:20:35.176Z,999.45
2017-08-24T02:21:35.205Z,999.44
2017-08-24T02:22:35.230Z,999.45
2017-08-24T02:23:35.246Z,999.43
2017-08-24T02:24:35.268Z,999.41
2017-08-24T02:25:35.289Z,999.47
2017-08-24T02:26:35.315Z,999.49
2017-08-24T02:27:35.343Z,999.55
2017-08-24T02:28:35.382Z,999.48
2017-08-24T02:29:35.376Z,999.46
2017-08-24T02:30:35.403Z,999.48
2017-08-24T02:31:35.424Z,999.48
2017-08-24T02:32:35.447Z,999.45
2017-08-24T02:33:35.483Z,999.43
2017-08-24T02:34:35.495Z,999.45
2017-08-24T02:35:35.523Z,999.44
2017-08-24T02:36:35.537Z,999.43
2017-08-24T02:37:35.559Z,999.42
2017-08-24T02:38:35.582Z,999.44
2017-08-24T02:39:35.605Z,999.44
2017-08-24T02:40:35.622Z,999.47
2017-08-24T02:41:35.645Z,999.44
2017-08-24T02:42:35.669Z,999.46
2017-08-24T02:43:35.696Z,999.48
2017-08-24T02:44:35.720Z,999.50
2017-08-24T02:45:35.743Z,999.46
2017-08-24T02:46:35.788Z,999.53
2017-08-24T02:47:35.777Z,999.48
2017-08-24T02:48:35.805Z,999.48
2017-08-24T02:49:35.825Z,999.44
2017-08-24T02:50:35.845Z,999.46
2017-08-24T02:51:35.871Z,999.44
2017-08-24T02:52:35.890Z,999.45
2017-08-24T02:53:35.917Z,999.44
2017-08-24T02:54:35.948Z,999.42
2017-08-24T02:55:35.960Z,999.41
2017-08-24T02:56:35.987Z,999.42
2017-08-24T02:57:36.008Z,999.37
2017-08-24T02:58:36.027Z,999.41
2017-08-24T02:59:36.056Z,999.36
2017-08-24T03:00:36.066Z,999.38
2017-08-24T03:01:36.101Z,999.36
2017-08-24T03:02:36.119Z,999.37
2017-08-24T03:03:36.157Z,999.38
2017-08-24T03:04:36.159Z,999.37
2017-08-24T03:05:36.182Z,999.37
2017-08-24T03:06:36.208Z,999.38
2017-08-24T03:07:36.230Z,999.38
2017-08-24T03:08:36.271Z,999.37
2017-08-24T03:09:36.295Z,999.38
2017-08-24T03:10:36.290Z,999.35
2017-08-24T03:11:36.319Z,999.36
2017-08-24T03:12:36.346Z,999.32
2017-08-24T03:13:36.365Z,999.34
2017-08-24T03:14:36.383Z,999.33
2017-08-24T03:15:36.419Z,999.36
2017-08-24T03:16:36.432Z,999.39
2017-08-24T03:17:36.455Z,999.43
2017-08-24T03:18:36.472Z,999.43
2017-08-24T03:19:36.498Z,999.48
2017-08-24T03:20:36.528Z,999.44
2017-08-24T03:21:36.553Z,999.40
2017-08-24T03:22:36.574Z,999.42
2017-08-24T03:23:36.587Z,999.38
2017-08-24T03:24:36.623Z,999.45
2017-08-24T03:25:36.631Z,999.42
2017-08-24T03:26:36.650Z,999.43
2017-08-24T03:27:36.672Z,999.46
2017-08-24T03:28:36.696Z,999.44
2017-08-24T03:29:36.726Z,999.42
2017-08-24T03:30:36.741Z,999.39
2017-08-24T03:31:36.771Z,999.42
2017-08-24T03:32:36.790Z,999.36
2017-08-24T03:33:36.811Z,999.34
2017-08-24T03:34:36.843Z,999.37
2017-08-24T03:35:36.850Z,999.38
2017-08-24T03:36:36.887Z,999.41
2017-08-24T03:37:36.900Z,999.41
2017-08-24T03:38:36.913Z,999.36
2017-08-24T03:39:36.937Z,999.37
2017-08-24T03:40:36.957Z,999.42
2017-08-24T03:41:36.987Z,999.44
2017-08-24T03:42:37.013Z,999.43
2017-08-24T03:43:37.039Z,999.45
2017-08-24T03:44:37.052Z,999.43
2017-08-24T03:45:37.069Z,999.35
2017-08-24T03:46:37.089Z,999.39
2017-08-24T03:47:37.125Z,999.39
2017-08-24T03:48:37.141Z,999.41
2017-08-24T03:49:37.163Z,999.37
2017-08-24T03:50:37.196Z,999.34
2017-08-24T03:51:37.214Z,999.33
2017-08-24T03:52:37.229Z,999.31
2017-08-24T03:53:37.247Z,999.36
2017-08-24T03:54:37.270Z,999.34
2017-08-24T03:55:37.292Z,999.30
2017-08-24T03:56:37.326Z,999.30
2017-08-24T03:57:37.341Z,999.29
2017-08-24T03:58:37.362Z,999.29
2017-08-24T03:59:37.379Z,999.30
2017-08-24T04:00:37.414Z,999.30
2017-08-24T04:01:37.429Z,999.33
2017-08-24T04:02:37.449Z,999.31
2017-08-24T04:03:37.477Z,999.31
2017-08-24T04:04:37.493Z,999.27
2017-08-24T04:05:37.518Z,999.31
2017-08-24T04:06:37.559Z,999.30
2017-08-24T04:07:37.559Z,999.32
2017-08-24T04:08:37.579Z,999.30
2017-08-24T04:09:37.631Z,999.30
2017-08-24T04:10:37.640Z,999.29
2017-08-24T04:11:37.673Z,999.29
2017-08-24T04:12:37.669Z,999.32
2017-08-24T04:13:37.693Z,999.31
2017-08-24T04:14:37.723Z,999.31
2017-08-24T04:15:37.740Z,999.30
2017-08-24T04:16:37.764Z,999.30
2017-08-24T04:17:37.791Z,999.32
2017-08-24T04:18:37.819Z,999.29
2017-08-24T04:19:37.830Z,999.29
2017-08-24T04:20:37.850Z,999.33
2017-08-24T04:21:37.866Z,999.37
2017-08-24T04:22:37.898Z,999.34
2017-08-24T04:23:37.932Z,999.35
2017-08-24T04:24:37.939Z,999.35
2017-08-24T04:25:37.955Z,999.33
2017-08-24T04:26:37.985Z,999.38
2017-08-24T04:27:38.012Z,999.36
2017-08-24T04:28:38.022Z,999.39
2017-08-24T04:29:38.055Z,999.41
2017-08-24T04:30:38.067Z,999.46
2017-08-24T04:31:38.094Z,999.49
2017-08-24T04:32:38.120Z,999.48
2017-08-24T04:33:38.153Z,999.49
2017-08-24T04:34:38.184Z,999.50
2017-08-24T04:35:38.180Z,999.49
2017-08-24T04:36:38.210Z,999.56
2017-08-24T04:37:38.229Z,999.58
2017-08-24T04:38:38.259Z,999.58
2017-08-24T04:39:38.274Z,999.59
2017-08-24T04:40:38.316Z,999.61
2017-08-24T04:41:38.332Z,999.59
2017-08-24T04:42:38.335Z,999.60
2017-08-24T04:43:38.368Z,999.63
2017-08-24T04:44:38.382Z,999.63
2017-08-24T04:45:38.409Z,999.62
2017-08-24T04:46:38.427Z,999.61
2017-08-24T04:47:38.449Z,999.62
2017-08-24T04:48:38.492Z,999.64
2017-08-24T04:49:38.490Z,999.64
2017-08-24T04:50:38.525Z,999.62
2017-08-24T04:51:38.548Z,999.65
2017-08-24T04:52:38.560Z,999.65
2017-08-24T04:53:38.607Z,999.64
2017-08-24T04:54:38.611Z,999.67
2017-08-24T04:55:38.634Z,999.67
2017-08-24T04:56:38.650Z,999.66
2017-08-24T04:57:38.670Z,999.60
2017-08-24T04:58:38.690Z,999.63
2017-08-24T04:59:38.718Z,999.61
2017-08-24T05:00:38.751Z,999.68
2017-08-24T05:01:38.780Z,999.69
2017-08-24T05:02:38.790Z,999.70
2017-08-24T05:03:38.807Z,999.70
2017-08-24T05:04:38.830Z,999.68
2017-08-24T05:05:38.850Z,999.69
2017-08-24T05:06:38.893Z,999.68
2017-08-24T05:07:38.893Z,999.67
2017-08-24T05:08:38.917Z,999.69
2017-08-24T05:09:38.941Z,999.72
2017-08-24T05:10:38.981Z,999.72
2017-08-24T05:11:38.990Z,999.73
2017-08-24T05:12:39.009Z,999.73
2017-08-24T05:13:39.037Z,999.75
2017-08-24T05:14:39.054Z,999.76
2017-08-24T05:15:39.074Z,999.78
2017-08-24T05:16:39.103Z,999.74
2017-08-24T05:17:39.117Z,999.77
2017-08-24T05:18:39.137Z,999.80
2017-08-24T05:19:39.160Z,999.81
2017-08-24T05:20:39.186Z,999.83
2017-08-24T05:21:39.214Z,999.85
2017-08-24T05:22:39.230Z,999.84
2017-08-24T05:23:39.254Z,999.82
2017-08-24T05:24:39.278Z,999.85
2017-08-24T05:25:39.298Z,999.81
2017-08-24T05:26:39.315Z,999.82
2017-08-24T05:27:39.350Z,999.84
2017-08-24T05:28:39.363Z,999.81
2017-08-24T05:29:39.398Z,999.85
2017-08-24T05:30:39.413Z,999.87
2017-08-24T05:31:39.445Z,999.85
2017-08-24T05:32:39.454Z,999.89
2017-08-24T05:33:39.480Z,999.94
2017-08-24T05:34:39.497Z,999.98
2017-08-24T05:35:39.523Z,999.98
2017-08-24T05:36:39.546Z,999.99
2017-08-24T05:37:39.564Z,999.97
2017-08-24T05:38:39.587Z,999.98
2017-08-24T05:39:39.624Z,999.99
2017-08-24T05:40:39.640Z,1000.03
2017-08-24T05:41:39.660Z,1000.01
2017-08-24T05:42:39.693Z,1000.00
2017-08-24T05:43:39.722Z,999.97
2017-08-24T05:44:39.725Z,999.96
2017-08-24T05:45:39.747Z,999.99
2017-08-24T05:46:39.766Z,1000.00
2017-08-24T05:47:39.793Z,999.99
2017-08-24T05:48:39.811Z,1000.02
2017-08-24T05:49:39.838Z,1000.04
2017-08-24T05:50:39.858Z,1000.01
2017-08-24T05:51:39.880Z,1000.03
2017-08-24T05:52:39.905Z,1000.03
2017-08-24T05:53:39.942Z,999.99
2017-08-24T05:54:39.958Z,1000.04
2017-08-24T05:55:39.967Z,1000.04
2017-08-24T05:56:39.990Z,1000.01
2017-08-24T05:57:40.012Z,1000.08
2017-08-24T05:58:40.041Z,1000.09
2017-08-24T05:59:40.071Z,1000.05
2017-08-24T06:00:40.089Z,1000.08
2017-08-24T06:01:40.105Z,1000.11
2017-08-24T06:02:40.126Z,1000.12
2017-08-24T06:03:40.152Z,1000.12
2017-08-24T06:04:40.175Z,1000.14
2017-08-24T06:05:40.193Z,1000.15
2017-08-24T06:06:40.216Z,1000.15
2017-08-24T06:07:40.249Z,1000.14
2017-08-24T06:08:40.262Z,1000.17
2017-08-24T06:09:40.290Z,1000.18
2017-08-24T06:10:40.319Z,1000.17
2017-08-24T06:11:40.329Z,1000.17
2017-08-24T06:12:40.368Z,1000.17
2017-08-24T06:13:40.387Z,1000.17
2017-08-24T06:14:40.398Z,1000.17
2017-08-24T06:15:40.419Z,1000.17
2017-08-24T06:16:40.443Z,1000.17
2017-08-24T06:17:40.479Z,1000.19
2017-08-24T06:18:40.513Z,1000.16
2017-08-24T06:19:40.515Z,1000.18
2017-08-24T06:20:40.540Z,1000.18
2017-08-24T06:21:40.553Z,1000.21
2017-08-24T06:22:40.576Z,1000.19
2017-08-24T06:23:40.601Z,1000.18
2017-08-24T06:24:40.606Z,1000.18
2017-08-24T06:25:40.649Z,1000.21
2017-08-24T06:26:40.659Z,1000.17
2017-08-24T06:27:40.677Z,1000.23
2017-08-24T06:28:40.714Z,1000.20
2017-08-24T06:29:40.733Z,1000.24
2017-08-24T06:30:40.760Z,1000.25
2017-08-24T06:31:40.797Z,1000.25
2017-08-24T06:32:40.809Z,1000.23
2017-08-24T06:33:40.831Z,1000.24
2017-08-24T06:34:40.854Z,1000.23
2017-08-24T06:35:40.879Z,1000.30
2017-08-24T06:36:40.902Z,1000.29
2017-08-24T06:37:40.922Z,1000.30
2017-08-24T06:38:40.943Z,1000.32
2017-08-24T06:39:40.964Z,1000.31
2017-08-24T06:40:41.001Z,1000.31
2017-08-24T06:41:41.025Z,1000.30
2017-08-24T06:42:41.036Z,1000.36
2017-08-24T06:43:41.059Z,1000.36
2017-08-24T06:44:41.090Z,1000.36
2017-08-24T06:45:41.098Z,1000.38
2017-08-24T06:46:41.124Z,1000.38
2017-08-24T06:47:41.145Z,1000.40
2017-08-24T06:48:41.175Z,1000.40
2017-08-24T06:49:41.202Z,1000.44
2017-08-24T06:50:41.213Z,1000.45
2017-08-24T06:51:41.233Z,1000.47
2017-08-24T06:52:41.304Z,1000.48
2017-08-24T06:53:41.282Z,1000.51
2017-08-24T06:54:41.304Z,1000.52
2017-08-24T06:55:41.328Z,1000.52
2017-08-24T06:56:41.352Z,1000.57
2017-08-24T06:57:41.373Z,1000.59
2017-08-24T06:58:41.411Z,1000.58
2017-08-24T06:59:41.430Z,1000.60
2017-08-24T07:00:41.446Z,1000.59
2017-08-24T07:01:41.469Z,1000.58
2017-08-24T07:02:41.484Z,1000.54
2017-08-24T07:03:41.512Z,1000.51
2017-08-24T07:04:41.549Z,1000.55
2017-08-24T07:05:41.554Z,1000.57
2017-08-24T07:06:41.581Z,1000.57
2017-08-24T07:07:41.600Z,1000.53
2017-08-24T07:08:41.626Z,1000.55
2017-08-24T07:09:41.666Z,1000.49
2017-08-24T07:10:41.673Z,1000.54
2017-08-24T07:11:41.726Z,1000.58
2017-08-24T07:12:41.715Z,1000.55
2017-08-24T07:13:41.741Z,1000.57
2017-08-24T07:14:41.762Z,1000.60
2017-08-24T07:15:41.787Z,1000.57
2017-08-24T07:16:41.829Z,1000.60
2017-08-24T07:17:41.833Z,1000.63
2017-08-24T07:18:41.858Z,1000.63
2017-08-24T07:19:41.875Z,1000.69
2017-08-24T07:20:41.910Z,1000.68
2017-08-24T07:21:41.916Z,1000.67
2017-08-24T07:22:41.939Z,1000.70
2017-08-24T07:23:41.962Z,1000.68
2017-08-24T07:24:41.988Z,1000.71
2017-08-24T07:25:42.012Z,1000.71
2017-08-24T07:26:42.058Z,1000.74
2017-08-24T07:27:42.056Z,1000.73
2017-08-24T07:28:42.086Z,1000.73
2017-08-24T07:29:42.105Z,1000.75
2017-08-24T07:30:42.137Z,1000.77
2017-08-24T07:31:42.156Z,1000.76
2017-08-24T07:32:42.174Z,1000.75
2017-08-24T07:33:42.211Z,1000.77
2017-08-24T07:34:42.226Z,1000.70
2017-08-24T07:35:42.246Z,1000.74
2017-08-24T07:36:42.275Z,1000.73
2017-08-24T07:37:42.297Z,1000.76
2017-08-24T07:38:42.317Z,1000.76
2017-08-24T07:39:42.342Z,1000.80
2017-08-24T07:40:42.364Z,1000.78
2017-08-24T07:41:42.394Z,1000.80
2017-08-24T07:42:42.410Z,1000.84
2017-08-24T07:43:42.433Z,1000.86
2017-08-24T07:44:42.452Z,1000.86
2017-08-24T07:45:42.483Z,1000.86
2017-08-24T07:46:42.502Z,1000.91
2017-08-24T07:47:42.540Z,1000.90
2017-08-24T07:48:42.552Z,1000.90
2017-08-24T07:49:42.573Z,1000.89
2017-08-24T07:50:42.595Z,1000.91
2017-08-24T07:51:42.633Z,1000.92
2017-08-24T07:52:42.647Z,1000.86
2017-08-24T07:53:42.674Z,1000.86
2017-08-24T07:54:42.680Z,1000.87
2017-08-24T07:55:42.711Z,1000.85
2017-08-24T07:56:42.733Z,1000.86
2017-08-24T07:57:42.753Z,1000.89
2017-08-24T07:58:42.783Z,1000.87
2017-08-24T07:59:42.805Z,1000.89
2017-08-24T08:00:42.824Z,1000.91
2017-08-24T08:01:42.856Z,1000.95
2017-08-24T08:02:42.868Z,1000.95
2017-08-24T08:03:42.895Z,1000.97
2017-08-24T08:04:42.928Z,1001.03
2017-08-24T08:05:42.947Z,1000.99
2017-08-24T08:06:42.967Z,1001.04
2017-08-24T08:07:42.991Z,1001.00
2017-08-24T08:08:43.018Z,1001.01
2017-08-24T08:09:43.042Z,1001.03
2017-08-24T08:10:43.068Z,1001.02
2017-08-24T08:11:43.084Z,1001.00
2017-08-24T08:12:43.108Z,1001.02
2017-08-24T08:13:43.135Z,1001.06
2017-08-24T08:14:43.158Z,1001.06
2017-08-24T08:15:43.176Z,1001.09
2017-08-24T08:16:43.202Z,1001.13
2017-08-24T08:17:43.223Z,1001.12
2017-08-24T08:18:43.247Z,1001.11
2017-08-24T08:19:43.282Z,1001.03
2017-08-24T08:20:43.301Z,1001.04
2017-08-24T08:21:43.313Z,1001.03
2017-08-24T08:22:43.349Z,1001.01
2017-08-24T08:23:43.365Z,1001.05
2017-08-24T08:24:43.419Z,1001.10
2017-08-24T08:25:43.413Z,1001.06
2017-08-24T08:26:43.431Z,1001.07
2017-08-24T08:27:43.459Z,1001.08
2017-08-24T08:28:43.495Z,1001.10
2017-08-24T08:29:43.504Z,1001.12
2017-08-24T08:30:43.539Z,1001.14
2017-08-24T08:31:43.550Z,1001.21
2017-08-24T08:32:43.580Z,1001.24
2017-08-24T08:33:43.602Z,1001.26
2017-08-24T08:34:43.627Z,1001.22
2017-08-24T08:35:43.657Z,1001.24
2017-08-24T08:36:43.671Z,1001.22
2017-08-24T08:37:43.696Z,1001.24
2017-08-24T08:38:43.723Z,1001.24
2017-08-24T08:39:43.751Z,1001.26
2017-08-24T08:40:43.765Z,1001.26
2017-08-24T08:41:43.799Z,1001.31
2017-08-24T08:42:43.814Z,1001.27
2017-08-24T08:43:43.839Z,1001.23
2017-08-24T08:44:43.890Z,1001.27
2017-08-24T08:45:43.885Z,1001.21
2017-08-24T08:46:43.920Z,1001.21
2017-08-24T08:47:43.946Z,1001.22
2017-08-24T08:48:43.993Z,1001.21
2017-08-24T08:49:43.983Z,1001.23
2017-08-24T08:50:44.009Z,1001.25
2017-08-24T08:51:44.037Z,1001.25
2017-08-24T08:52:44.062Z,1001.30
2017-08-24T08:53:44.088Z,1001.27
2017-08-24T08:54:44.123Z,1001.28
2017-08-24T08:55:44.136Z,1001.35
2017-08-24T08:56:44.153Z,1001.41
2017-08-24T08:57:44.189Z,1001.45
2017-08-24T08:58:44.204Z,1001.47
2017-08-24T08:59:44.227Z,1001.44
2017-08-24T09:00:44.259Z,1001.40
2017-08-24T09:01:44.277Z,1001.34
2017-08-24T09:02:44.330Z,1001.39
2017-08-24T09:03:44.328Z,1001.43
2017-08-24T09:04:44.355Z,1001.42
2017-08-24T09:05:44.388Z,1001.43
2017-08-24T09:06:44.398Z,1001.43
2017-08-24T09:07:44.451Z,1001.44
2017-08-24T09:08:44.436Z,1001.43
2017-08-24T09:09:44.454Z,1001.43
2017-08-24T09:10:44.479Z,1001.42
2017-08-24T09:11:44.511Z,1001.41
2017-08-24T09:12:44.557Z,1001.40
2017-08-24T09:13:44.570Z,1001.37
2017-08-24T09:14:44.612Z,1001.41
2017-08-24T09:15:44.627Z,1001.40
2017-08-24T09:16:44.641Z,1001.41
2017-08-24T09:17:44.668Z,1001.46
2017-08-24T09:18:44.695Z,1001.43
2017-08-24T09:19:44.715Z,1001.43
2017-08-24T09:20:44.746Z,1001.41
2017-08-24T09:21:44.761Z,1001.44
2017-08-24T09:22:44.793Z,1001.44
2017-08-24T09:23:44.816Z,1001.42
2017-08-24T09:24:44.840Z,1001.38
2017-08-24T09:25:44.868Z,1001.42
2017-08-24T09:26:44.890Z,1001.42
2017-08-24T09:27:44.916Z,1001.46
2017-08-24T09:28:44.940Z,1001.45
2017-08-24T09:29:44.970Z,1001.47
2017-08-24T09:30:44.988Z,1001.52
2017-08-24T09:31:45.020Z,1001.52
2017-08-24T09:32:45.033Z,1001.54
2017-08-24T09:33:45.055Z,1001.58
2017-08-24T09:34:45.084Z,1001.57
2017-08-24T09:35:45.107Z,1001.59
2017-08-24T09:36:45.140Z,1001.57
2017-08-24T09:37:45.161Z,1001.57
2017-08-24T09:38:45.184Z,1001.61
2017-08-24T09:39:45.213Z,1001.61
2017-08-24T09:40:45.239Z,1001.61
2017-08-24T09:41:45.258Z,1001.61
2017-08-24T09:42:45.283Z,1001.62
2017-08-24T09:43:45.311Z,1001.61
2017-08-24T09:44:45.330Z,1001.62
2017-08-24T09:45:45.356Z,1001.62
2017-08-24T09:46:45.382Z,1001.66
2017-08-24T09:47:45.397Z,1001.61
2017-08-24T09:48:45.435Z,1001.58
2017-08-24T09:49:45.445Z,1001.65
2017-08-24T09:50:45.480Z,1001.66
2017-08-24T09:51:45.505Z,1001.69
2017-08-24T09:52:45.525Z,1001.68
2017-08-24T09:53:45.575Z,1001.67
2017-08-24T09:54:45.578Z,1001.65
2017-08-24T09:55:45.602Z,1001.64
2017-08-24T09:56:45.626Z,1001.63
2017-08-24T09:57:45.681Z,1001.61
2017-08-24T09:58:45.684Z,1001.65
2017-08-24T09:59:45.693Z,1001.67
2017-08-24T10:00:45.722Z,1001.67
2017-08-24T10:01:45.751Z,1001.69
2017-08-24T10:02:45.775Z,1001.69
2017-08-24T10:03:45.804Z,1001.67
2017-08-24T10:04:45.817Z,1001.63
2017-08-24T10:05:45.851Z,1001.65
2017-08-24T10:06:45.878Z,1001.70
2017-08-24T10:07:45.894Z,1001.70
2017-08-24T10:08:45.916Z,1001.67
2017-08-24T10:09:45.940Z,1001.70
2017-08-24T10:10:45.969Z,1001.73
2017-08-24T10:11:45.991Z,1001.72
2017-08-24T10:12:46.028Z,1001.74
2017-08-24T10:13:46.043Z,1001.74
2017-08-24T10:14:46.064Z,1001.74
2017-08-24T10:15:46.097Z,1001.76
2017-08-24T10:16:46.114Z,1001.77
2017-08-24T10:17:46.146Z,1001.77
2017-08-24T10:18:46.182Z,1001.79
2017-08-24T10:19:46.194Z,1001.77
2017-08-24T10:20:46.223Z,1001.78
2017-08-24T10:21:46.239Z,1001.78
2017-08-24T10:22:46.270Z,1001.76
2017-08-24T10:23:46.293Z,1001.80
2017-08-24T10:24:46.318Z,1001.77
2017-08-24T10:25:46.352Z,1001.77
2017-08-24T10:26:46.363Z,1001.72
2017-08-24T10:27:46.386Z,1001.75
2017-08-24T10:28:46.456Z,1001.74
2017-08-24T10:29:46.508Z,1001.76
2017-08-24T10:30:46.483Z,1001.73
2017-08-24T10:31:46.490Z,1001.75
2017-08-24T10:32:46.516Z,1001.74
2017-08-24T10:33:46.540Z,1001.70
2017-08-24T10:34:46.561Z,1001.71
2017-08-24T10:35:46.593Z,1001.71
2017-08-24T10:36:46.626Z,1001.73
2017-08-24T10:37:46.639Z,1001.73
2017-08-24T10:38:46.655Z,1001.70
2017-08-24T10:39:46.688Z,1001.75
2017-08-24T10:40:46.705Z,1001.72
2017-08-24T10:41:46.733Z,1001.70
2017-08-24T10:42:46.759Z,1001.70
2017-08-24T10:43:46.785Z,1001.72
2017-08-24T10:44:46.806Z,1001.69
2017-08-24T10:45:46.835Z,1001.70
2017-08-24T10:46:46.853Z,1001.73
2017-08-24T10:47:46.913Z,1001.69
2017-08-24T10:48:46.919Z,1001.72
2017-08-24T10:49:46.928Z,1001.69
2017-08-24T10:50:46.954Z,1001.70
2017-08-24T10:51:46.977Z,1001.70
2017-08-24T10:52:47.002Z,1001.69
2017-08-24T10:53:47.032Z,1001.70
2017-08-24T10:54:47.052Z,1001.67
2017-08-24T10:55:47.080Z,1001.67
2017-08-24T10:56:47.097Z,1001.67
2017-08-24T10:57:47.122Z,1001.71
2017-08-24T10:58:47.155Z,1001.70
2017-08-24T10:59:47.175Z,1001.68
2017-08-24T11:00:47.198Z,1001.71
2017-08-24T11:01:47.222Z,1001.77
2017-08-24T11:02:47.252Z,1001.76
2017-08-24T11:03:47.294Z,1001.83
2017-08-24T11:04:47.310Z,1001.82
2017-08-24T11:05:47.337Z,1001.82
2017-08-24T11:06:47.348Z,1001.87
2017-08-24T11:07:47.370Z,1001.85
2017-08-24T11:08:47.401Z,1001.83
2017-08-24T11:09:47.422Z,1001.84
2017-08-24T11:10:47.445Z,1001.81
2017-08-24T11:11:47.466Z,1001.84
2017-08-24T11:12:47.499Z,1001.87
2017-08-24T11:13:47.525Z,1001.87
2017-08-24T11:14:47.544Z,1001.90
2017-08-24T11:15:47.566Z,1001.88
2017-08-24T11:16:47.600Z,1001.87
2017-08-24T11:17:47.631Z,1001.88
2017-08-24T11:18:47.641Z,1001.92
2017-08-24T11:19:47.664Z,1001.93
2017-08-24T11:20:47.719Z,1001.92
2017-08-24T11:21:47.721Z,1001.86
2017-08-24T11:22:47.742Z,1001.94
2017-08-24T11:23:47.772Z,1001.96
2017-08-24T11:24:47.789Z,1001.95
2017-08-24T11:25:47.809Z,1001.96
2017-08-24T11:26:47.851Z,1001.90
2017-08-24T11:27:47.863Z,1001.89
2017-08-24T11:28:47.882Z,1001.92
2017-08-24T11:29:47.933Z,1001.89
2017-08-24T11:30:47.940Z,1001.88
2017-08-24T11:31:47.957Z,1001.91
2017-08-24T11:32:47.983Z,1001.87
2017-08-24T11:33:48.028Z,1001.92
2017-08-24T11:34:48.030Z,1001.88
2017-08-24T11:35:48.083Z,1001.83
2017-08-24T11:36:48.098Z,1001.86
2017-08-24T11:37:48.120Z,1001.85
2017-08-24T11:38:48.135Z,1001.89
2017-08-24T11:39:48.162Z,1001.92
2017-08-24T11:40:48.188Z,1001.92
2017-08-24T11:41:48.206Z,1001.89
2017-08-24T11:42:48.236Z,1001.93
2017-08-24T11:43:48.257Z,1001.91
2017-08-24T11:44:48.277Z,1001.94
2017-08-24T11:45:48.299Z,1001.96
2017-08-24T11:46:48.332Z,1001.95
2017-08-24T11:47:48.357Z,1001.95
2017-08-24T11:48:48.402Z,1001.97
2017-08-24T11:49:48.401Z,1001.99
2017-08-24T11:50:48.433Z,1001.97
2017-08-24T11:51:48.449Z,1001.96
2017-08-24T11:52:48.479Z,1001.96
2017-08-24T11:53:48.501Z,1001.92
2017-08-24T11:54:48.530Z,1001.94
2017-08-24T11:55:48.559Z,1001.93
2017-08-24T11:56:48.579Z,1001.95
2017-08-24T11:57:48.603Z,1001.93
2017-08-24T11:58:48.702Z,1001.96
2017-08-24T11:59:48.649Z,1001.97
2017-08-24T12:00:48.671Z,1001.93
2017-08-24T12:01:48.720Z,1001.94
2017-08-24T12:02:48.719Z,1001.94
2017-08-24T12:03:48.744Z,1001.91
2017-08-24T12:04:48.767Z,1001.91
2017-08-24T12:05:48.792Z,1001.89
2017-08-24T12:06:48.815Z,1001.89
2017-08-24T12:07:48.840Z,1001.90
2017-08-24T12:08:48.866Z,1001.91
2017-08-24T12:09:48.904Z,1001.87
2017-08-24T12:10:48.991Z,1001.88
2017-08-24T12:11:48.942Z,1001.93
2017-08-24T12:12:48.963Z,1001.90
2017-08-24T12:13:48.993Z,1001.93
2017-08-24T12:14:49.017Z,1001.96
2017-08-24T12:15:49.037Z,1001.96